Time;durP1;ratioP1;P1;durP2;ratioP2;P2;SDS_P1;SDS_P2;PMS_P1;PMS_P2;Temp;Humidity;BMP_temperature;BMP_pressure;BME280_temperature;BME280_humidity;BME280_pressure;Samples;Min_cycle;Max_cycle;Signal;HPM_P1;HPM_P2
2023/10/31 00:02:02;;;;;;;0.60;0.50;;;13.30;99.90;;;;;;5078932;28;20259;-89
2023/10/31 00:04:28;;;;;;;2.60;0.80;;;13.40;99.90;;;;;;5081331;28;20196;-90
2023/10/31 00:06:54;;;;;;;0.60;0.50;;;;;;;;;;5070169;28;20457;-90
2023/10/31 00:09:20;;;;;;;0.70;0.68;;;13.40;99.90;;;;;;5081008;28;20177;-90
2023/10/31 00:11:48;;;;;;;0.67;0.57;;;14.30;99.90;;;;;;5080463;28;20185;-89
2023/10/31 00:14:16;;;;;;;0.80;0.50;;;13.90;99.90;;;;;;5064706;28;20213;-90
2023/10/31 00:16:44;;;;;;;0.80;0.63;;;13.50;99.90;;;;;;5055785;28;20180;-89
2023/10/31 00:19:12;;;;;;;5.68;0.80;;;13.40;99.90;;;;;;5052476;28;20177;-90
2023/10/31 00:21:38;;;;;;;0.70;0.60;;;13.10;99.90;;;;;;5054972;28;20220;-90
2023/10/31 00:24:06;;;;;;;0.90;0.67;;;13.50;99.90;;;;;;5055818;28;20757;-90
2023/10/31 00:26:32;;;;;;;0.80;0.70;;;13.20;99.90;;;;;;5050777;28;20283;-90
2023/10/31 00:28:58;;;;;;;1.10;0.70;;;15.40;99.90;;;;;;5054513;28;20323;-90
2023/10/31 00:31:23;;;;;;;1.73;0.70;;;15.00;99.90;;;;;;5055326;28;20193;-90
2023/10/31 00:33:49;;;;;;;0.83;0.77;;;13.70;99.90;;;;;;5055030;28;20207;-90
2023/10/31 00:36:15;;;;;;;0.70;0.60;;;14.80;99.90;;;;;;5053748;28;20199;-89
2023/10/31 00:38:41;;;;;;;1.67;0.70;;;;;;;;;;5052736;28;20286;-90
2023/10/31 00:41:07;;;;;;;0.90;0.60;;;13.20;99.90;;;;;;5054599;28;20186;-90
2023/10/31 00:43:33;;;;;;;0.80;0.70;;;14.90;99.90;;;;;;5055273;28;20754;-90
2023/10/31 00:45:58;;;;;;;0.80;0.70;;;13.20;99.90;;;;;;5073646;28;20220;-90
2023/10/31 00:48:27;;;;;;;1.00;0.60;;;14.00;99.90;;;;;;5080166;28;20204;-90
2023/10/31 00:50:53;;;;;;;1.17;0.90;;;14.80;99.90;;;;;;5079414;28;20184;-90
2023/10/31 00:53:18;;;;;;;1.40;0.77;;;13.90;99.90;;;;;;5080472;28;20221;-90
2023/10/31 00:55:44;;;;;;;0.80;0.60;;;12.20;99.90;;;;;;5060434;28;20197;-90
2023/10/31 00:58:12;;;;;;;0.90;0.60;;;13.40;99.90;;;;;;5049763;28;20201;-90
2023/10/31 01:00:38;;;;;;;0.70;0.60;;;13.60;99.90;;;;;;5055272;28;20191;-90
2023/10/31 01:03:03;;;;;;;0.83;0.70;;;14.70;99.90;;;;;;5054830;28;20204;-90
2023/10/31 01:05:29;;;;;;;0.90;0.70;;;13.30;99.90;;;;;;5053273;28;20213;-89
2023/10/31 01:07:55;;;;;;;0.73;0.60;;;13.80;99.90;;;;;;5054253;28;20283;-89
2023/10/31 01:10:21;;;;;;;0.70;0.60;;;13.10;99.90;;;;;;5051180;28;20184;-89
2023/10/31 01:12:47;;;;;;;1.17;0.70;;;12.80;99.90;;;;;;5053463;28;20229;-90
2023/10/31 01:15:13;;;;;;;1.00;0.60;;;;;;;;;;5060950;28;20236;-89
2023/10/31 01:17:38;;;;;;;0.98;0.70;;;13.10;99.90;;;;;;5074925;28;20237;-89
2023/10/31 01:20:06;;;;;;;0.70;0.50;;;13.70;99.90;;;;;;5069019;28;20409;-89
2023/10/31 01:22:34;;;;;;;1.10;0.70;;;12.70;99.90;;;;;;5055100;28;20185;-89
2023/10/31 01:25:02;;;;;;;0.70;0.60;;;14.60;99.90;;;;;;5055173;28;20188;-90
2023/10/31 01:27:28;;;;;;;0.60;0.60;;;13.70;99.90;;;;;;5056561;28;20188;-89
2023/10/31 01:29:53;;;;;;;0.60;0.60;;;14.30;99.90;;;;;;5060129;28;20212;-89
2023/10/31 01:32:19;;;;;;;1.07;0.60;;;13.70;99.90;;;;;;5061692;28;20184;-89
2023/10/31 01:34:47;;;;;;;1.00;0.67;;;13.20;99.90;;;;;;5054215;28;20571;-89
2023/10/31 01:37:14;;;;;;;0.82;0.63;;;12.90;99.90;;;;;;5070811;28;20181;-90
2023/10/31 01:39:40;;;;;;;1.90;0.70;;;13.80;99.90;;;;;;5077701;28;20224;-89
2023/10/31 01:42:11;;;;;;;0.82;0.60;;;12.70;99.90;;;;;;5074967;28;20189;-89
2023/10/31 01:44:38;;;;;;;0.90;0.68;;;12.40;99.90;;;;;;5051159;28;20200;-89
2023/10/31 01:47:07;;;;;;;1.45;0.80;;;14.20;99.90;;;;;;5053694;28;20673;-90
2023/10/31 01:49:36;;;;;;;1.27;0.70;;;12.40;99.90;;;;;;5054535;28;20302;-90
2023/10/31 01:52:03;;;;;;;0.90;0.63;;;14.10;99.90;;;;;;5055180;28;20185;-89
2023/10/31 01:54:33;;;;;;;1.13;0.70;;;12.40;99.90;;;;;;5052170;28;20687;-90
2023/10/31 01:57:00;;;;;;;0.70;0.68;;;12.80;99.90;;;;;;5054519;28;20181;-89
2023/10/31 01:59:27;;;;;;;1.42;0.68;;;14.40;99.90;;;;;;5053319;28;20204;-90
2023/10/31 02:01:53;;;;;;;1.15;0.60;;;12.40;99.90;;;;;;5056403;28;20184;-90
2023/10/31 02:04:19;;;;;;;2.33;0.55;;;14.20;99.90;;;;;;5052508;28;20213;-90
2023/10/31 02:06:47;;;;;;;1.50;0.80;;;13.80;99.90;;;;;;5046951;28;20191;-90
2023/10/31 02:09:14;;;;;;;0.90;0.80;;;14.80;99.90;;;;;;5051930;28;20183;-89
2023/10/31 02:11:40;;;;;;;0.60;0.60;;;12.10;99.90;;;;;;5054415;28;20238;-89
2023/10/31 02:14:08;;;;;;;1.10;0.60;;;13.90;99.90;;;;;;5056661;28;20205;-89
2023/10/31 02:16:33;;;;;;;0.85;0.60;;;14.40;99.90;;;;;;5059810;28;20234;-89
2023/10/31 02:18:59;;;;;;;0.70;0.70;;;13.90;99.90;;;;;;5059507;28;20617;-90
2023/10/31 02:21:29;;;;;;;1.93;0.70;;;12.60;99.90;;;;;;5057592;28;20189;-90
2023/10/31 02:23:58;;;;;;;0.80;0.70;;;12.80;99.90;;;;;;5082846;28;20203;-89
2023/10/31 02:26:28;;;;;;;1.63;0.90;;;11.30;99.90;;;;;;5072240;28;20196;-90
2023/10/31 02:28:54;;;;;;;1.20;1.00;;;12.00;99.90;;;;;;5093391;28;20196;-90
2023/10/31 02:31:23;;;;;;;1.80;1.00;;;12.50;99.90;;;;;;5078371;28;20204;-90
2023/10/31 02:33:49;;;;;;;1.25;0.70;;;11.70;99.90;;;;;;5055744;28;20302;-90
2023/10/31 02:36:17;;;;;;;1.33;0.70;;;13.70;99.90;;;;;;5052323;28;20275;-90
2023/10/31 02:38:47;;;;;;;1.42;0.77;;;11.70;99.90;;;;;;5053113;28;20276;-90
2023/10/31 02:41:14;;;;;;;1.25;0.90;;;12.20;99.90;;;;;;5053055;28;20181;-90
2023/10/31 02:43:40;;;;;;;1.23;0.88;;;12.00;99.90;;;;;;5055101;28;20212;-90
2023/10/31 02:46:15;;;;;;;1.23;0.80;;;14.00;99.90;;;;;;5036116;28;20611;-90
2023/10/31 02:48:44;;;;;;;1.15;0.80;;;11.90;99.90;;;;;;5052824;28;20185;-90
2023/10/31 02:51:09;;;;;;;0.85;0.80;;;13.40;99.90;;;;;;5035899;28;20189;-90
2023/10/31 02:53:38;;;;;;;2.50;0.67;;;;;;;;;;5051862;28;20219;-90
2023/10/31 02:56:08;;;;;;;1.83;0.80;;;11.80;99.90;;;;;;5052551;28;20188;-90
2023/10/31 02:58:34;;;;;;;0.90;0.70;;;12.00;99.90;;;;;;5052715;28;20753;-90
2023/10/31 03:01:00;;;;;;;1.70;0.87;;;12.00;99.90;;;;;;5055387;28;20196;-89
2023/10/31 03:03:28;;;;;;;1.63;0.80;;;;;;;;;;5057004;28;20219;-90
2023/10/31 03:05:54;;;;;;;2.08;0.95;;;11.50;99.90;;;;;;5053329;28;20943;-90
2023/10/31 03:08:20;;;;;;;1.55;0.75;;;13.40;99.90;;;;;;5054348;28;20338;-90
2023/10/31 03:10:52;;;;;;;1.00;0.73;;;11.60;99.90;;;;;;5054413;28;20663;-90
2023/10/31 03:13:19;;;;;;;2.50;0.80;;;12.20;99.90;;;;;;5051150;28;20208;-90
2023/10/31 03:15:47;;;;;;;1.05;0.95;;;13.30;99.90;;;;;;5074125;28;20169;-90
2023/10/31 03:18:15;;;;;;;1.90;0.90;;;11.60;99.90;;;;;;5075757;28;20185;-90
2023/10/31 03:20:46;;;;;;;1.55;0.80;;;11.00;99.90;;;;;;5055727;28;20180;-90
2023/10/31 03:23:12;;;;;;;1.00;0.80;;;11.60;99.90;;;;;;5049176;28;20679;-89
2023/10/31 03:25:41;;;;;;;1.00;0.70;;;13.10;99.90;;;;;;5052782;28;20313;-90
2023/10/31 03:32:09;;;;;;;1.30;0.80;;;11.60;99.90;;;;;;5033716;28;20252;-90
2023/10/31 03:34:41;;;;;;;2.20;1.00;;;12.70;99.90;;;;;;5143938;22;20255;-90
2023/10/31 03:37:43;;;;;;;1.45;1.02;;;11.20;99.90;;;;;;5095125;28;20682;-90
2023/10/31 03:40:16;;;;;;;1.90;0.88;;;11.50;99.90;;;;;;5089038;28;20554;-90
2023/10/31 03:42:45;;;;;;;1.42;0.77;;;11.70;99.90;;;;;;5105462;28;20295;-90
2023/10/31 03:45:21;;;;;;;2.33;0.85;;;12.40;99.90;;;;;;5088516;28;20187;-90
2023/10/31 03:48:15;;;;;;;4.10;1.23;;;12.20;99.90;;;;;;5087584;28;20727;-90
2023/10/31 03:50:46;;;;;;;1.15;1.00;;;11.30;99.90;;;;;;5089139;28;20192;-89
2023/10/31 03:53:18;;;;;;;1.90;1.08;;;11.70;99.90;;;;;;5089072;28;20206;-89
2023/10/31 03:55:56;;;;;;;1.33;1.10;;;12.50;99.90;;;;;;5087292;28;20180;-89
2023/10/31 03:58:40;;;;;;;1.10;1.00;;;11.60;99.90;;;;;;5082205;28;20746;-89
2023/10/31 04:01:05;;;;;;;4.75;0.90;;;13.10;99.90;;;;;;5089773;28;20203;-89
2023/10/31 04:03:44;;;;;;;1.30;0.90;;;12.60;99.90;;;;;;5088928;28;20591;-89
2023/10/31 04:06:17;;;;;;;1.20;1.10;;;11.90;99.90;;;;;;5086989;28;20192;-89
2023/10/31 04:08:48;;;;;;;2.85;1.00;;;11.50;99.90;;;;;;5084635;28;20187;-89
2023/10/31 04:11:14;;;;;;;4.00;1.10;;;13.60;99.90;;;;;;5088961;28;20195;-89
2023/10/31 04:13:45;;;;;;;1.63;1.00;;;12.70;99.90;;;;;;5088178;28;20214;-90
2023/10/31 04:16:11;;;;;;;1.13;1.02;;;11.30;99.90;;;;;;5082120;28;20262;-89
2023/10/31 04:18:37;;;;;;;1.30;0.90;;;13.20;99.90;;;;;;5088588;28;20636;-89
2023/10/31 04:21:03;;;;;;;2.00;1.00;;;12.40;99.90;;;;;;5088284;28;20545;-89
2023/10/31 04:23:36;;;;;;;2.03;1.00;;;11.70;99.90;;;;;;5087546;28;20239;-89
2023/10/31 04:26:02;;;;;;;1.25;1.02;;;13.40;99.90;;;;;;5087630;28;20547;-90
2023/10/31 04:28:31;;;;;;;1.20;1.10;;;11.60;99.90;;;;;;5089663;28;20278;-89
2023/10/31 04:30:56;;;;;;;5.15;3.22;;;10.40;99.90;;;;;;5091581;28;20210;-89
2023/10/31 04:33:22;;;;;;;2.27;1.90;;;12.70;99.90;;;;;;5090018;28;22094;-89
2023/10/31 04:35:48;;;;;;;2.77;1.07;;;11.80;99.90;;;;;;5101838;28;20182;-89
2023/10/31 04:38:14;;;;;;;1.30;1.08;;;12.90;99.90;;;;;;5113792;28;20172;-89
2023/10/31 04:40:42;;;;;;;1.20;0.93;;;12.20;99.90;;;;;;5106300;28;20198;-89
2023/10/31 04:43:11;;;;;;;2.28;1.00;;;11.70;99.90;;;;;;5090614;28;20211;-89
2023/10/31 04:45:36;;;;;;;2.45;1.40;;;11.30;99.90;;;;;;5090695;28;20179;-89
2023/10/31 04:48:05;;;;;;;1.80;0.90;;;11.40;99.90;;;;;;5097854;28;20232;-89
2023/10/31 04:50:32;;;;;;;1.63;1.20;;;13.80;99.90;;;;;;5093865;28;20660;-89
2023/10/31 04:53:00;;;;;;;1.40;1.30;;;11.60;99.90;;;;;;5092942;28;20696;-89
2023/10/31 04:55:28;;;;;;;2.35;1.13;;;10.80;99.90;;;;;;5089174;28;20276;-89
2023/10/31 04:57:53;;;;;;;1.10;1.00;;;11.30;99.90;;;;;;5089578;28;20280;-90
2023/10/31 05:00:19;;;;;;;1.57;1.20;;;11.40;99.90;;;;;;5089550;28;20640;-89
2023/10/31 05:02:47;;;;;;;2.07;1.20;;;10.30;99.90;;;;;;5092495;28;20214;-89
2023/10/31 05:05:14;;;;;;;1.85;1.40;;;11.40;99.90;;;;;;5103638;28;20660;-90
2023/10/31 05:07:40;;;;;;;2.50;2.30;;;11.50;99.90;;;;;;5087551;28;20208;-89
2023/10/31 05:10:06;;;;;;;3.57;3.00;;;11.30;99.90;;;;;;5090372;28;20211;-89
2023/10/31 05:12:31;;;;;;;1.25;1.15;;;11.20;99.90;;;;;;5090144;28;20205;-89
2023/10/31 05:14:57;;;;;;;3.23;1.20;;;;;;;;;;5091726;28;20684;-90
2023/10/31 05:17:24;;;;;;;2.58;2.38;;;11.30;99.90;;;;;;5094729;28;20217;-92
2023/10/31 05:20:11;;;;;;;2.03;1.30;;;11.40;99.90;;;;;;5098704;28;20263;-90
2023/10/31 05:22:36;;;;;;;2.25;1.27;;;11.10;99.90;;;;;;5087310;28;20605;-89
2023/10/31 05:25:02;;;;;;;1.38;1.27;;;11.60;99.90;;;;;;5090115;28;20191;-89
2023/10/31 05:27:43;;;;;;;3.40;1.30;;;11.20;99.90;;;;;;5092329;28;20669;-90
2023/10/31 05:36:31;;;;;;;1.60;1.50;;;11.20;99.90;;;;;;5071134;28;20207;-91
2023/10/31 05:39:18;;;;;;;3.70;1.95;;;11.00;99.90;;;;;;5066738;28;20175;-91
2023/10/31 05:55:35;;;;;;;1.15;0.82;;;10.30;99.90;;;;;;5086048;22;20233;-89
2023/10/31 05:58:01;;;;;;;0.90;0.80;;;11.00;99.90;;;;;;5042510;28;20188;-89
2023/10/31 06:00:27;;;;;;;1.30;0.83;;;;;;;;;;5035292;28;20280;-90
2023/10/31 06:20:12;;;;;;;2.95;1.20;;;11.60;99.90;;;;;;5049817;28;20246;-92
2023/10/31 06:30:37;;;;;;;1.02;0.93;;;13.00;99.90;;;;;;5022977;28;20182;-92
2023/10/31 06:35:33;;;;;;;0.70;0.60;;;11.80;99.90;;;;;;5048723;28;20224;-87
2023/10/31 06:38:01;;;;;;;1.00;0.70;;;11.50;99.90;;;;;;5030392;28;20216;-88
2023/10/31 06:40:26;;;;;;;0.70;0.60;;;11.60;99.90;;;;;;5014241;28;20188;-86
2023/10/31 06:42:52;;;;;;;0.73;0.70;;;11.80;99.90;;;;;;5016107;28;20205;-86
2023/10/31 06:45:18;;;;;;;0.97;0.77;;;11.60;99.90;;;;;;5014200;28;20188;-86
2023/10/31 06:47:43;;;;;;;1.10;0.93;;;11.80;99.90;;;;;;5017157;28;20184;-86
2023/10/31 06:50:09;;;;;;;1.30;0.80;;;11.70;99.90;;;;;;5016865;28;20299;-86
2023/10/31 06:52:35;;;;;;;1.10;0.70;;;11.70;99.90;;;;;;5012118;28;20566;-86
2023/10/31 06:55:00;;;;;;;0.73;0.70;;;11.50;99.90;;;;;;5016735;28;20798;-91
2023/10/31 06:57:26;;;;;;;3.40;0.90;;;11.90;99.90;;;;;;5019405;28;20199;-91
2023/10/31 06:59:51;;;;;;;3.20;1.20;;;12.30;99.90;;;;;;5018160;28;20679;-91
2023/10/31 07:02:17;;;;;;;0.80;0.70;;;11.60;99.90;;;;;;5015225;28;20193;-84
2023/10/31 07:04:44;;;;;;;0.80;0.80;;;12.00;99.90;;;;;;5019205;28;20220;-83
2023/10/31 07:07:10;;;;;;;1.70;1.10;;;12.20;99.90;;;;;;5006213;28;20451;-84
2023/10/31 07:09:35;;;;;;;1.57;0.80;;;12.00;99.90;;;;;;5021535;28;20209;-83
2023/10/31 07:12:01;;;;;;;0.97;0.70;;;11.90;99.90;;;;;;5022452;28;20184;-83
2023/10/31 07:14:27;;;;;;;1.13;0.80;;;11.80;99.90;;;;;;5030211;28;20206;-83
2023/10/31 07:16:53;;;;;;;1.00;0.90;;;11.80;99.90;;;;;;5030382;28;20169;-83
2023/10/31 07:19:18;;;;;;;1.10;0.70;;;11.70;99.90;;;;;;5030522;28;20193;-83
2023/10/31 07:21:44;;;;;;;0.97;0.93;;;12.00;99.90;;;;;;5034378;28;20182;-83
2023/10/31 07:24:09;;;;;;;0.83;0.67;;;12.00;99.90;;;;;;5035027;28;20178;-82
2023/10/31 07:26:35;;;;;;;1.97;1.17;;;12.00;99.90;;;;;;5025566;28;20485;-83
2023/10/31 07:29:02;;;;;;;1.17;1.08;;;11.90;99.90;;;;;;5017321;28;20190;-83
2023/10/31 07:31:28;;;;;;;1.30;1.00;;;12.10;99.90;;;;;;5015471;28;20197;-89
2023/10/31 07:33:53;;;;;;;0.87;0.80;;;12.00;99.90;;;;;;5014835;28;20227;-90
2023/10/31 07:36:19;;;;;;;1.47;1.00;;;12.40;99.90;;;;;;5010630;28;20197;-89
2023/10/31 07:38:44;;;;;;;3.73;0.90;;;12.10;99.90;;;;;;4999216;28;20285;-89
2023/10/31 07:41:10;;;;;;;1.20;0.60;;;12.20;99.90;;;;;;5014687;28;20269;-89
2023/10/31 07:43:36;;;;;;;1.10;0.70;;;12.30;99.90;;;;;;5014552;28;20240;-89
2023/10/31 07:46:01;;;;;;;1.23;0.87;;;12.40;99.90;;;;;;5014657;28;20572;-89
2023/10/31 07:48:27;;;;;;;1.97;0.90;;;12.20;99.90;;;;;;5016326;28;20193;-89
2023/10/31 07:50:53;;;;;;;2.70;0.70;;;12.70;99.90;;;;;;5033627;28;20444;-89
2023/10/31 07:53:21;;;;;;;1.23;1.07;;;12.50;99.90;;;;;;5014117;28;20674;-89
2023/10/31 07:55:49;;;;;;;1.55;0.80;;;12.60;99.90;;;;;;5020486;28;21006;-89
2023/10/31 07:58:15;;;;;;;8.23;0.85;;;13.00;99.90;;;;;;5015622;28;20182;-89
2023/10/31 08:00:41;;;;;;;0.80;0.80;;;12.70;99.90;;;;;;5015742;28;20320;-93
2023/10/31 08:03:07;;;;;;;1.55;1.10;;;13.60;99.90;;;;;;5038253;28;20674;-90
2023/10/31 08:05:33;;;;;;;1.63;0.80;;;14.10;99.90;;;;;;5021731;28;20313;-90
2023/10/31 08:07:58;;;;;;;1.63;0.87;;;12.90;99.90;;;;;;5024864;28;20178;-90
2023/10/31 08:10:24;;;;;;;0.80;0.60;;;13.10;99.90;;;;;;5017803;28;20173;-89
2023/10/31 08:12:49;;;;;;;0.70;0.70;;;12.80;99.90;;;;;;5027485;28;20259;-89
2023/10/31 08:15:16;;;;;;;1.40;0.80;;;13.60;99.90;;;;;;5021077;28;20198;-89
2023/10/31 08:17:42;;;;;;;3.05;0.93;;;13.20;99.90;;;;;;5013049;28;20680;-92
2023/10/31 08:20:11;;;;;;;1.08;0.82;;;13.30;99.90;;;;;;5033958;28;20182;-90
2023/10/31 08:22:39;;;;;;;1.27;0.93;;;13.40;99.90;;;;;;5018801;28;20202;-90
2023/10/31 08:25:05;;;;;;;1.80;0.95;;;13.10;99.90;;;;;;5021585;28;20212;-90
2023/10/31 08:27:30;;;;;;;1.02;0.80;;;13.30;99.90;;;;;;5029941;28;20189;-90
2023/10/31 08:29:56;;;;;;;0.80;0.80;;;13.60;99.90;;;;;;5023673;28;20182;-90
2023/10/31 08:32:24;;;;;;;1.20;0.90;;;13.40;99.90;;;;;;5021510;28;20234;-91
2023/10/31 08:34:50;;;;;;;1.60;1.05;;;13.70;99.90;;;;;;5017912;28;20268;-91
2023/10/31 08:37:15;;;;;;;2.37;1.20;;;13.90;99.90;;;;;;5016280;28;20588;-91
2023/10/31 08:39:41;;;;;;;1.47;1.27;;;13.70;99.90;;;;;;5020683;28;20609;-92
2023/10/31 08:42:06;;;;;;;1.57;0.90;;;14.20;99.90;;;;;;5018008;28;20187;-91
2023/10/31 08:44:39;;;;;;;1.20;0.90;;;14.40;99.90;;;;;;5016132;28;20694;-93
2023/10/31 08:47:06;;;;;;;3.45;0.80;;;14.00;99.90;;;;;;5021281;28;20186;-93
2023/10/31 08:49:31;;;;;;;1.05;0.75;;;14.20;99.90;;;;;;5018020;28;20186;-92
2023/10/31 08:51:57;;;;;;;1.20;0.80;;;13.50;99.90;;;;;;5015058;28;20450;-91
2023/10/31 08:54:22;;;;;;;3.27;0.83;;;14.30;99.90;;;;;;5031968;28;20697;-91
2023/10/31 08:56:48;;;;;;;2.70;0.90;;;14.10;99.90;;;;;;5015731;28;20302;-92
2023/10/31 08:59:17;;;;;;;1.57;0.90;;;14.10;99.90;;;;;;5015062;28;20289;-91
2023/10/31 09:01:42;;;;;;;0.93;0.80;;;14.30;99.90;;;;;;5014630;28;20642;-88
2023/10/31 09:04:08;;;;;;;3.63;0.97;;;14.80;99.90;;;;;;5013246;28;20322;-90
2023/10/31 09:06:34;;;;;;;2.00;1.00;;;14.20;99.90;;;;;;5014423;28;20194;-89
2023/10/31 09:08:59;;;;;;;0.90;0.80;;;14.30;99.90;;;;;;5016285;28;20198;-90
2023/10/31 09:11:25;;;;;;;1.10;0.90;;;14.30;99.90;;;;;;5014596;28;20270;-90
2023/10/31 09:13:50;;;;;;;0.93;0.80;;;14.80;99.90;;;;;;4999608;28;20888;-90
2023/10/31 09:16:16;;;;;;;1.20;1.10;;;14.50;99.90;;;;;;5013769;28;20186;-90
2023/10/31 09:18:43;;;;;;;2.33;1.00;;;14.90;99.90;;;;;;5014996;28;20636;-90
2023/10/31 09:21:08;;;;;;;1.35;0.90;;;14.70;99.90;;;;;;5016940;28;20257;-91
2023/10/31 09:23:34;;;;;;;1.13;0.77;;;15.10;99.90;;;;;;5015766;28;20222;-91
2023/10/31 09:26:00;;;;;;;1.73;0.90;;;14.70;99.90;;;;;;5051062;22;20236;-89
2023/10/31 09:28:25;;;;;;;0.80;0.80;;;14.30;99.90;;;;;;5054076;28;20559;-88
2023/10/31 09:30:51;;;;;;;1.90;0.90;;;14.90;99.90;;;;;;5054371;28;20581;-88
2023/10/31 09:33:17;;;;;;;2.90;1.23;;;14.90;99.90;;;;;;5050273;28;20279;-87
2023/10/31 09:35:43;;;;;;;1.37;0.80;;;14.90;99.90;;;;;;5050394;28;20616;-89
2023/10/31 09:38:08;;;;;;;1.58;1.20;;;14.90;99.90;;;;;;5049381;28;20208;-88
2023/10/31 09:40:38;;;;;;;1.67;1.00;;;14.70;99.90;;;;;;5051899;28;20284;-89
2023/10/31 09:43:04;;;;;;;2.28;1.13;;;15.20;99.90;;;;;;5047411;28;20232;-89
2023/10/31 09:45:30;;;;;;;2.20;1.02;;;14.60;99.90;;;;;;5051047;28;20257;-88
2023/10/31 09:47:56;;;;;;;2.37;0.90;;;15.20;99.90;;;;;;5051850;28;20666;-90
2023/10/31 09:50:22;;;;;;;2.72;0.95;;;14.50;99.90;;;;;;5052141;28;20188;-90
2023/10/31 09:52:48;;;;;;;1.40;0.90;;;15.30;99.90;;;;;;5047451;28;20201;-90
2023/10/31 09:55:14;;;;;;;2.77;1.27;;;15.10;99.90;;;;;;5053798;28;20463;-88
2023/10/31 09:57:39;;;;;;;3.50;1.03;;;14.80;99.90;;;;;;5067364;28;20436;-88
2023/10/31 10:00:06;;;;;;;2.67;1.77;;;14.30;99.90;;;;;;5049588;28;20507;-89
2023/10/31 10:02:31;;;;;;;5.00;1.20;;;14.90;99.90;;;;;;5061669;28;20254;-89
2023/10/31 10:04:57;;;;;;;5.93;1.47;;;14.70;99.90;;;;;;5071941;28;20204;-86
2023/10/31 10:07:23;;;;;;;3.70;1.43;;;15.50;99.90;;;;;;5070123;28;20264;-86
2023/10/31 10:09:48;;;;;;;5.70;1.30;;;15.10;99.90;;;;;;5069084;28;20451;-88
2023/10/31 10:12:15;;;;;;;1.20;1.00;;;15.10;99.90;;;;;;5072741;28;20185;-89
2023/10/31 10:14:41;;;;;;;1.30;1.00;;;14.40;99.90;;;;;;5071662;28;20217;-90
2023/10/31 10:17:18;;;;;;;1.73;1.30;;;15.20;99.90;;;;;;5067920;28;20231;-90
2023/10/31 10:19:43;;;;;;;2.25;1.23;;;15.30;99.90;;;;;;5056179;28;20247;-89
2023/10/31 10:22:10;;;;;;;1.20;1.10;;;15.10;99.90;;;;;;5047997;28;20181;-90
2023/10/31 10:24:38;;;;;;;1.73;1.50;;;15.00;99.90;;;;;;5049655;28;20755;-88
2023/10/31 10:27:04;;;;;;;2.10;1.10;;;15.10;99.90;;;;;;5049630;28;20670;-87
2023/10/31 10:29:30;;;;;;;1.50;1.10;;;15.10;99.90;;;;;;5050663;28;20189;-88
2023/10/31 10:31:55;;;;;;;3.47;1.00;;;14.80;99.90;;;;;;5051275;28;20739;-86
2023/10/31 10:34:21;;;;;;;1.20;1.10;;;15.50;99.90;;;;;;5053318;28;20224;-85
2023/10/31 10:36:51;;;;;;;2.07;1.30;;;14.70;99.90;;;;;;5062143;28;20551;-86
2023/10/31 10:39:21;;;;;;;2.00;1.30;;;15.60;99.90;;;;;;5048370;28;20490;-87
2023/10/31 10:41:51;;;;;;;2.47;1.50;;;15.70;99.90;;;;;;5047175;28;20201;-88
2023/10/31 10:44:19;;;;;;;1.70;1.10;;;15.00;99.90;;;;;;5044976;28;22391;-85
2023/10/31 10:46:50;;;;;;;1.80;1.30;;;15.30;99.90;;;;;;5054200;28;20181;-87
2023/10/31 10:49:16;;;;;;;1.60;0.90;;;15.10;99.90;;;;;;5051243;28;20186;-86
2023/10/31 10:55:01;;;;;;;1.48;1.38;;;15.70;99.90;;;;;;5059625;22;20256;-84
2023/10/31 10:57:41;;;;;;;1.02;0.88;;;15.00;99.90;;;;;;5054646;28;20185;-84
2023/10/31 11:00:09;;;;;;;1.50;1.10;;;16.60;99.90;;;;;;5050550;28;20184;-84
2023/10/31 11:02:36;;;;;;;4.82;1.65;;;15.00;99.90;;;;;;5033597;28;20210;-84
2023/10/31 11:05:08;;;;;;;3.97;1.20;;;14.20;99.90;;;;;;5018515;28;20182;-84
2023/10/31 11:07:37;;;;;;;2.15;1.10;;;15.10;99.90;;;;;;5013222;28;20190;-83
2023/10/31 11:10:04;;;;;;;1.65;1.20;;;15.10;99.90;;;;;;5017766;28;20182;-84
2023/10/31 11:12:31;;;;;;;3.95;1.90;;;15.30;99.90;;;;;;5015511;28;20282;-85
2023/10/31 11:15:02;;;;;;;2.47;1.92;;;16.70;99.90;;;;;;5015354;28;20249;-85
2023/10/31 11:17:39;;;;;;;2.30;1.20;;;17.20;99.90;;;;;;5016568;28;20740;-85
2023/10/31 11:20:07;;;;;;;2.45;1.17;;;15.80;99.90;;;;;;5016863;28;20289;-85
2023/10/31 11:22:46;;;;;;;1.70;1.00;;;15.80;99.90;;;;;;5015025;28;20198;-85
2023/10/31 11:25:23;;;;;;;2.13;1.35;;;16.70;99.90;;;;;;5029633;28;20186;-85
2023/10/31 11:27:52;;;;;;;1.65;1.55;;;;;;;;;;5013742;28;20190;-85
2023/10/31 11:30:34;;;;;;;1.70;1.10;;;15.60;99.90;;;;;;5035735;28;20218;-85
2023/10/31 11:33:01;;;;;;;1.60;1.27;;;17.00;99.90;;;;;;5012995;28;20202;-85
2023/10/31 11:35:29;;;;;;;1.50;1.10;;;15.70;99.90;;;;;;5030200;28;20267;-84
2023/10/31 11:38:10;;;;;;;1.38;1.25;;;14.50;99.90;;;;;;5014630;28;20181;-84
2023/10/31 11:40:49;;;;;;;1.48;0.90;;;15.60;99.90;;;;;;5002802;28;20551;-84
2023/10/31 11:43:14;;;;;;;1.88;1.08;;;15.40;99.90;;;;;;5026355;28;20694;-90
2023/10/31 11:45:43;;;;;;;2.30;1.50;;;15.50;99.90;;;;;;5015676;28;20178;-89
2023/10/31 11:48:10;;;;;;;5.55;1.10;;;15.30;99.90;;;;;;5012918;28;20208;-89
2023/10/31 11:50:42;;;;;;;1.85;1.48;;;15.80;99.90;;;;;;5009895;28;20288;-88
2023/10/31 11:53:12;;;;;;;2.38;1.50;;;15.70;99.90;;;;;;5008384;28;20716;-89
2023/10/31 11:55:43;;;;;;;2.10;1.08;;;15.60;99.90;;;;;;5015142;28;20218;-89
2023/10/31 11:58:23;;;;;;;6.50;4.15;;;15.20;99.90;;;;;;5027915;28;20186;-89
2023/10/31 12:00:50;;;;;;;3.28;2.92;;;15.60;99.90;;;;;;5010946;28;20174;-90
2023/10/31 12:03:20;;;;;;;2.28;1.38;;;15.60;99.90;;;;;;5011231;28;20198;-90
2023/10/31 12:05:58;;;;;;;2.40;1.20;;;15.50;99.90;;;;;;5030786;28;20190;-90
2023/10/31 12:08:38;;;;;;;2.40;1.20;;;15.80;99.90;;;;;;5030726;28;20520;-89
2023/10/31 12:11:04;;;;;;;3.83;1.00;;;15.30;99.90;;;;;;5013204;28;20190;-91
2023/10/31 12:13:30;;;;;;;3.75;2.00;;;15.40;99.90;;;;;;5012780;28;20289;-89
2023/10/31 12:15:56;;;;;;;2.00;1.03;;;15.20;99.90;;;;;;5012961;28;20216;-91
2023/10/31 12:18:22;;;;;;;1.25;1.10;;;15.00;99.90;;;;;;5012509;28;20266;-90
2023/10/31 12:20:51;;;;;;;1.33;1.07;;;15.50;99.90;;;;;;5011428;28;20635;-90
2023/10/31 12:23:20;;;;;;;2.25;2.00;;;15.50;99.90;;;;;;5014806;28;20198;-91
2023/10/31 12:25:50;;;;;;;1.63;0.90;;;15.70;99.90;;;;;;5024873;28;20196;-90
2023/10/31 12:28:20;;;;;;;1.45;0.95;;;15.00;99.90;;;;;;5010946;28;20190;-91
2023/10/31 12:30:47;;;;;;;0.95;0.75;;;14.90;99.90;;;;;;4997326;28;20201;-90
2023/10/31 12:33:13;;;;;;;1.38;0.90;;;15.30;99.90;;;;;;5018912;28;20612;-90
2023/10/31 12:35:39;;;;;;;0.90;0.67;;;14.60;99.90;;;;;;5011848;28;20241;-90
2023/10/31 12:38:05;;;;;;;1.33;0.80;;;14.70;99.90;;;;;;5011894;28;20455;-90
2023/10/31 12:40:31;;;;;;;1.02;0.70;;;14.50;99.90;;;;;;5013147;28;20523;-89
2023/10/31 12:42:58;;;;;;;1.00;0.73;;;14.60;99.90;;;;;;5010709;28;20847;-90
2023/10/31 12:45:24;;;;;;;1.20;1.10;;;15.00;99.90;;;;;;5012518;28;20445;-90
2023/10/31 12:48:11;;;;;;;1.65;1.10;;;14.60;99.90;;;;;;5029061;28;20189;-91
2023/10/31 12:50:39;;;;;;;2.65;1.05;;;14.70;99.90;;;;;;4999283;28;20190;-90
2023/10/31 12:53:05;;;;;;;1.90;0.88;;;14.10;99.90;;;;;;5014547;28;20218;-87
2023/10/31 12:55:40;;;;;;;1.75;1.17;;;14.30;99.90;;;;;;5012720;28;20225;-87
2023/10/31 12:58:06;;;;;;;1.45;0.70;;;14.30;99.90;;;;;;5014489;28;20616;-89
2023/10/31 13:00:33;;;;;;;2.70;1.10;;;14.50;99.90;;;;;;5015035;28;20273;-88
2023/10/31 13:03:08;;;;;;;2.65;1.30;;;14.60;99.90;;;;;;5032455;28;20461;-91
2023/10/31 13:05:34;;;;;;;0.77;0.60;;;14.60;99.90;;;;;;5015789;28;20193;-89
2023/10/31 13:08:00;;;;;;;1.00;0.80;;;14.50;99.90;;;;;;5014042;28;20191;-89
2023/10/31 13:10:29;;;;;;;2.05;0.90;;;15.90;99.90;;;;;;5015818;28;20281;-89
2023/10/31 13:12:55;;;;;;;2.33;1.08;;;14.50;99.90;;;;;;5013309;28;20206;-91
2023/10/31 13:15:22;;;;;;;1.00;0.77;;;14.80;99.90;;;;;;5015205;28;20202;-89
2023/10/31 13:17:49;;;;;;;1.70;1.15;;;14.80;99.90;;;;;;5015714;28;20857;-90
2023/10/31 13:20:17;;;;;;;2.65;0.90;;;14.50;99.90;;;;;;5015113;28;20194;-89
2023/10/31 13:22:43;;;;;;;2.83;2.50;;;14.50;99.90;;;;;;5016963;28;20236;-90
2023/10/31 13:25:11;;;;;;;1.80;1.23;;;14.60;99.90;;;;;;5031828;28;20186;-90
2023/10/31 13:27:38;;;;;;;1.23;1.13;;;14.60;99.90;;;;;;5016849;28;20194;-91
2023/10/31 13:30:05;;;;;;;5.10;1.00;;;14.30;99.90;;;;;;5019309;28;20193;-89
2023/10/31 13:32:30;;;;;;;1.65;0.60;;;14.50;99.90;;;;;;5013172;28;20273;-89
2023/10/31 13:34:56;;;;;;;0.60;0.60;;;13.90;99.90;;;;;;5012582;28;20301;-89
2023/10/31 13:37:21;;;;;;;1.30;0.80;;;14.50;99.90;;;;;;5016672;28;20178;-88
2023/10/31 13:39:47;;;;;;;1.63;1.00;;;14.60;99.90;;;;;;5014098;28;20194;-86
2023/10/31 13:42:16;;;;;;;1.63;0.70;;;14.30;99.90;;;;;;5014782;28;20481;-87
2023/10/31 13:44:43;;;;;;;0.80;0.73;;;14.80;99.90;;;;;;5011956;28;20440;-91
2023/10/31 13:47:09;;;;;;;1.00;0.90;;;14.60;99.90;;;;;;5016598;28;20279;-91
2023/10/31 13:49:35;;;;;;;0.90;0.73;;;14.40;99.90;;;;;;5015868;28;20214;-90